Ana Sayfa
METAR-TAF:

METAR-TAF

Havaalanları :

Tucson, Arizona, Amerika Birleşik Devletleri

Enlem: 32-08-32N, Boylam: 111-10-28W, yükseklik: 737 m

Güncel hava durumu gözlemi

Rapor saat 02:45 UTC de 5 saat ve 39 dakika önce yapıldı.
Rüzgar güney/güneydoğudan 4 kt
Sıcaklık 14°C
Nem 63%
Basınç 1018 hPa
Görüş mesafesi: 16.1 km
Açık gökyüzü

METAR: KRYN 140245Z 16004KT 10SM CLR 14/07 A3007 RMK LAST

Saat: 01:24 (08:24 UTC)


TAF: eksik

4.000'den fazla havaalanı için hava durumu gözlemleri ve tahminleri (METAR ve TAF raporları).

Kullanılabilir istasyonlar harita üzerinde sarı ve kırmızı noktalarla gösterilir.

İstasyonun adını görmek için fareyi noktanın üzerinde gezdirin.

Sonrasında hava gözlem ve tahminlerini görmek için tıklayın.

Haritayı değiştirmek için: yaklaştırmak için siyah artı işaretli yeşil düğmeye ve uzaklaştırmak için de eksi işaretli düğmeye hızla tıklayın; bitişik haritalar için yeşil okları kullanın.


METAR-TAF: